Time;durP1;ratioP1;P1;durP2;ratioP2;P2;SDS_P1;SDS_P2;PMS_P1;PMS_P2;Temp;Humidity;BMP_temperature;BMP_pressure;BME280_temperature;BME280_humidity;BME280_pressure;Samples;Min_cycle;Max_cycle;Signal;HPM_P1;HPM_P2
2022/10/07 00:03:17;;;;;;;3.80;3.50;;;15.00;40.30;;;;;;10478447;28;20232;-77
2022/10/07 00:08:20;;;;;;;4.10;3.73;;;15.00;40.30;;;;;;10475252;28;20232;-77
2022/10/07 00:13:24;;;;;;;3.90;3.60;;;14.90;40.40;;;;;;10478089;28;20576;-77
2022/10/07 00:18:27;;;;;;;3.93;3.40;;;14.90;40.60;;;;;;10479410;28;20712;-77
2022/10/07 00:23:30;;;;;;;5.90;4.10;;;14.90;40.50;;;;;;10471123;28;20282;-77
2022/10/07 00:28:36;;;;;;;7.30;4.40;;;14.90;40.60;;;;;;10474602;28;20285;-77
2022/10/07 00:33:39;;;;;;;5.20;4.70;;;14.90;40.90;;;;;;10479048;28;20232;-81
2022/10/07 00:38:43;;;;;;;6.80;4.40;;;14.80;40.50;;;;;;10476235;28;20244;-77
2022/10/07 00:43:48;;;;;;;4.80;4.00;;;14.70;40.60;;;;;;10468049;28;20270;-77
2022/10/07 00:48:51;;;;;;;3.50;3.20;;;14.60;40.90;;;;;;10475692;28;20228;-77
2022/10/07 00:53:56;;;;;;;3.93;3.23;;;14.50;40.80;;;;;;10477753;28;20279;-77
2022/10/07 00:59:01;;;;;;;3.73;3.43;;;14.50;41.20;;;;;;10480123;28;20232;-77
2022/10/07 01:04:04;;;;;;;3.90;3.60;;;14.50;41.50;;;;;;10468760;28;20634;-77
2022/10/07 01:09:21;;;;;;;4.03;3.73;;;14.50;41.30;;;;;;10467945;28;20233;-77
2022/10/07 01:14:46;;;;;;;4.43;3.60;;;14.50;42.00;;;;;;10466459;28;20228;-77
2022/10/07 01:20:08;;;;;;;3.77;3.47;;;14.60;42.00;;;;;;10461698;28;20245;-77
2022/10/07 01:25:25;;;;;;;3.33;3.07;;;14.60;42.00;;;;;;10464893;28;20229;-78
2022/10/07 01:30:35;;;;;;;3.17;2.97;;;14.60;42.00;;;;;;10460769;28;20257;-77
2022/10/07 01:35:41;;;;;;;3.60;3.27;;;14.60;42.00;;;;;;10467702;28;20301;-77
2022/10/07 01:40:48;;;;;;;3.73;3.10;;;14.60;41.80;;;;;;10459414;28;20236;-78
2022/10/07 01:45:55;;;;;;;3.80;3.50;;;14.60;41.80;;;;;;10477322;28;20224;-78
2022/10/07 01:51:00;;;;;;;4.80;2.97;;;14.60;42.10;;;;;;10467910;28;20228;-77
2022/10/07 01:56:24;;;;;;;4.27;3.30;;;14.60;41.60;;;;;;10463247;28;20295;-77
2022/10/07 02:08:02;;;;;;;2.83;2.63;;;14.60;42.00;;;;;;10459532;28;20224;-77
2022/10/07 02:13:12;;;;;;;3.30;3.00;;;14.50;42.00;;;;;;10467295;28;20231;-77
2022/10/07 02:18:19;;;;;;;3.00;2.50;;;14.50;41.90;;;;;;10467228;28;20245;-77
2022/10/07 02:23:26;;;;;;;3.23;3.00;;;14.50;41.80;;;;;;10469483;28;20782;-77
2022/10/07 02:28:31;;;;;;;3.87;2.70;;;14.50;42.00;;;;;;10460250;28;20229;-77
2022/10/07 02:33:35;;;;;;;5.23;3.03;;;14.50;41.80;;;;;;10466093;28;20308;-77
2022/10/07 02:38:40;;;;;;;3.20;2.90;;;14.50;41.80;;;;;;10465265;28;20228;-77
2022/10/07 02:43:48;;;;;;;4.40;2.70;;;14.50;42.00;;;;;;10466381;28;20643;-77
2022/10/07 02:48:57;;;;;;;3.00;2.70;;;14.50;42.00;;;;;;10458815;28;20233;-77
2022/10/07 02:54:03;;;;;;;3.63;2.60;;;14.40;41.90;;;;;;10464191;28;20277;-77
2022/10/07 02:59:10;;;;;;;2.77;2.43;;;14.40;42.00;;;;;;10460704;28;20233;-77
2022/10/07 03:04:14;;;;;;;4.53;2.67;;;14.40;42.00;;;;;;10464780;28;20283;-77
2022/10/07 03:09:19;;;;;;;5.77;3.07;;;14.30;41.90;;;;;;10460960;28;20236;-78
2022/10/07 03:14:23;;;;;;;3.23;2.80;;;14.40;42.20;;;;;;10464332;28;20228;-77
2022/10/07 03:19:26;;;;;;;2.90;2.70;;;14.30;42.00;;;;;;10462509;28;20236;-77
2022/10/07 03:24:31;;;;;;;3.30;3.00;;;14.30;42.10;;;;;;10467318;28;20625;-77
2022/10/07 03:29:34;;;;;;;3.60;2.80;;;14.30;42.50;;;;;;10454132;28;20297;-77
2022/10/07 03:34:38;;;;;;;5.27;2.90;;;14.30;42.40;;;;;;10464915;28;20228;-77
2022/10/07 03:39:43;;;;;;;2.67;2.47;;;14.30;42.30;;;;;;10458294;28;20240;-77
2022/10/07 03:44:48;;;;;;;3.03;2.83;;;14.30;42.50;;;;;;10463214;28;20237;-77
2022/10/07 03:49:52;;;;;;;3.20;2.90;;;14.30;42.40;;;;;;10464377;28;20228;-77
2022/10/07 03:54:56;;;;;;;3.33;3.03;;;14.30;42.60;;;;;;10465185;28;20229;-77
2022/10/07 03:59:59;;;;;;;4.00;3.00;;;14.30;42.90;;;;;;10469067;28;20232;-77
2022/10/07 04:05:03;;;;;;;2.87;2.67;;;14.30;42.70;;;;;;10470354;28;20225;-77
2022/10/07 04:10:08;;;;;;;2.97;2.50;;;14.30;42.80;;;;;;10468755;28;20234;-77
2022/10/07 04:15:12;;;;;;;3.37;2.37;;;14.40;43.10;;;;;;10471066;28;20283;-77
2022/10/07 04:20:17;;;;;;;2.40;2.20;;;14.40;42.90;;;;;;10476303;28;20240;-77
2022/10/07 04:25:37;;;;;;;2.10;1.90;;;14.40;43.00;;;;;;10475036;28;20233;-78
2022/10/07 04:30:42;;;;;;;2.70;2.30;;;14.50;43.10;;;;;;10469615;28;20240;-77
2022/10/07 04:35:45;;;;;;;4.23;2.50;;;14.50;43.00;;;;;;10466580;28;20232;-77
2022/10/07 04:40:50;;;;;;;2.30;2.10;;;14.50;43.00;;;;;;10469050;28;20778;-77
2022/10/07 04:45:55;;;;;;;1.97;1.80;;;14.50;43.20;;;;;;10471870;28;20274;-77
2022/10/07 04:51:02;;;;;;;3.47;2.13;;;14.50;43.10;;;;;;10477411;28;20233;-77
2022/10/07 04:56:07;;;;;;;2.60;2.23;;;14.50;43.90;;;;;;10465060;28;20719;-77
2022/10/07 05:01:10;;;;;;;3.63;2.10;;;14.50;43.60;;;;;;10468372;28;20320;-77
2022/10/07 05:06:13;;;;;;;2.50;2.30;;;14.50;43.10;;;;;;10471695;28;20270;-77
2022/10/07 05:11:18;;;;;;;2.60;2.40;;;14.60;43.40;;;;;;10478094;28;20244;-77
2022/10/07 05:16:21;;;;;;;2.87;2.30;;;14.60;43.70;;;;;;10476326;28;20309;-78
2022/10/07 05:21:24;;;;;;;3.80;2.50;;;14.50;43.30;;;;;;10475887;28;20704;-76
2022/10/07 05:26:28;;;;;;;3.30;2.30;;;14.50;43.70;;;;;;10464730;28;20237;-76
2022/10/07 05:31:32;;;;;;;2.97;2.67;;;14.50;43.90;;;;;;10470542;28;20233;-77
2022/10/07 05:36:35;;;;;;;2.37;2.27;;;14.50;43.90;;;;;;10465266;28;20993;-77
2022/10/07 05:41:40;;;;;;;2.77;2.50;;;14.60;44.00;;;;;;10470344;28;20279;-77
2022/10/07 05:46:48;;;;;;;2.70;2.47;;;14.60;44.00;;;;;;10464744;28;20239;-78
2022/10/07 05:51:51;;;;;;;2.20;2.10;;;14.60;44.00;;;;;;10469921;28;20220;-77
2022/10/07 05:56:56;;;;;;;2.70;2.50;;;14.60;44.00;;;;;;10478476;22;20220;-73
2022/10/07 06:01:59;;;;;;;3.03;2.83;;;14.70;44.10;;;;;;10469980;28;20696;-71
2022/10/07 06:07:02;;;;;;;3.83;2.90;;;14.70;44.10;;;;;;10478288;28;20247;-71
2022/10/07 06:17:30;;;;;;;3.37;2.87;;;14.80;44.20;;;;;;10503061;28;20238;-71
2022/10/07 06:22:33;;;;;;;3.93;3.20;;;14.80;44.20;;;;;;10504511;28;20560;-70
2022/10/07 06:27:38;;;;;;;2.80;2.50;;;14.90;44.30;;;;;;10497908;28;20228;-71
2022/10/07 06:32:41;;;;;;;2.87;2.50;;;14.90;44.30;;;;;;10498274;28;20337;-70
2022/10/07 06:37:44;;;;;;;3.63;2.87;;;15.00;44.30;;;;;;10497414;28;20277;-70
2022/10/07 06:42:49;;;;;;;2.53;2.33;;;15.00;44.30;;;;;;10501430;28;20259;-70
2022/10/07 06:47:52;;;;;;;2.97;2.40;;;15.10;44.40;;;;;;10502265;28;20232;-70
2022/10/07 06:52:55;;;;;;;2.67;2.43;;;15.10;44.40;;;;;;10505865;28;20235;-70
2022/10/07 06:57:59;;;;;;;3.10;2.40;;;15.10;44.40;;;;;;10497941;28;20285;-70
2022/10/07 07:03:04;;;;;;;2.70;2.50;;;15.20;44.60;;;;;;10500834;28;20227;-70
2022/10/07 07:08:08;;;;;;;2.30;2.20;;;15.20;44.50;;;;;;10494716;28;20579;-70
2022/10/07 07:13:14;;;;;;;3.03;2.37;;;15.30;44.60;;;;;;10500780;28;20227;-70
2022/10/07 07:18:17;;;;;;;2.50;2.30;;;15.40;44.70;;;;;;10498641;28;20712;-70
2022/10/07 07:23:20;;;;;;;3.80;2.50;;;15.40;44.70;;;;;;10497490;28;20277;-70
2022/10/07 07:28:24;;;;;;;2.60;2.10;;;15.50;44.80;;;;;;10497020;28;20232;-70
2022/10/07 07:33:28;;;;;;;3.23;2.50;;;15.60;44.90;;;;;;10502041;28;20223;-70
2022/10/07 07:38:31;;;;;;;2.70;2.50;;;15.60;44.90;;;;;;10510111;28;20236;-70
2022/10/07 07:43:35;;;;;;;2.63;2.10;;;15.70;45.00;;;;;;10509345;28;20232;-70
2022/10/07 07:48:38;;;;;;;3.20;2.73;;;15.80;45.00;;;;;;10511408;28;20239;-70
2022/10/07 07:53:41;;;;;;;2.73;2.53;;;16.00;45.20;;;;;;10508523;28;20292;-70
2022/10/07 07:58:46;;;;;;;5.27;2.40;;;16.20;45.40;;;;;;10506480;28;20242;-70
2022/10/07 08:03:50;;;;;;;5.17;2.60;;;16.30;45.50;;;;;;10503593;28;20719;-70
2022/10/07 08:08:55;;;;;;;3.10;2.80;;;16.50;45.60;;;;;;10503937;28;20265;-70
2022/10/07 08:14:01;;;;;;;3.97;2.97;;;16.70;45.90;;;;;;10507620;28;20733;-70
2022/10/07 08:19:05;;;;;;;3.30;3.00;;;17.00;46.10;;;;;;10509235;28;20220;-70
2022/10/07 08:24:11;;;;;;;3.83;2.70;;;17.20;46.30;;;;;;10506129;28;20231;-70
2022/10/07 08:29:16;;;;;;;4.47;2.90;;;17.40;45.90;;;;;;10503859;28;20264;-70
2022/10/07 08:34:20;;;;;;;5.53;3.30;;;17.60;46.20;;;;;;10504133;28;20228;-70
2022/10/07 08:39:26;;;;;;;3.83;3.50;;;17.90;45.90;;;;;;10503027;28;20232;-70
2022/10/07 08:44:36;;;;;;;3.53;3.23;;;18.10;45.90;;;;;;10505992;28;20236;-70
2022/10/07 08:49:53;;;;;;;3.50;3.20;;;18.30;46.00;;;;;;10503314;28;20290;-70
2022/10/07 08:54:58;;;;;;;5.07;3.50;;;18.50;45.60;;;;;;10507524;28;20242;-69
2022/10/07 09:00:05;;;;;;;5.00;3.57;;;18.80;45.90;;;;;;10500438;28;20231;-70
2022/10/07 09:05:20;;;;;;;4.53;3.70;;;19.00;45.90;;;;;;10499730;28;20259;-70
2022/10/07 09:10:31;;;;;;;4.30;3.90;;;19.30;45.60;;;;;;10502623;28;20235;-69
2022/10/07 09:15:41;;;;;;;4.30;4.00;;;19.50;45.50;;;;;;10503443;28;20727;-69
2022/10/07 09:20:52;;;;;;;4.50;4.10;;;19.70;45.00;;;;;;10508063;28;20223;-70
2022/10/07 09:25:55;;;;;;;4.70;4.23;;;19.90;44.80;;;;;;10503047;28;20232;-70
2022/10/07 09:31:01;;;;;;;4.57;4.17;;;20.10;44.80;;;;;;10502879;28;20240;-70
2022/10/07 09:36:07;;;;;;;4.43;4.13;;;20.20;44.50;;;;;;10498811;28;20934;-70
2022/10/07 09:41:16;;;;;;;4.90;4.50;;;20.40;44.50;;;;;;10499548;28;20236;-70
2022/10/07 09:46:45;;;;;;;4.80;4.37;;;20.50;44.30;;;;;;10501569;28;20378;-70
2022/10/07 09:51:58;;;;;;;5.00;4.60;;;20.70;44.30;;;;;;10500917;28;20232;-70
2022/10/07 09:57:04;;;;;;;4.80;4.40;;;21.00;44.10;;;;;;10497477;28;20662;-70
2022/10/07 10:02:22;;;;;;;5.73;4.37;;;21.20;44.40;;;;;;10505211;28;20232;-70
2022/10/07 10:07:27;;;;;;;6.70;4.93;;;21.40;43.90;;;;;;10501752;28;20622;-70
2022/10/07 10:12:36;;;;;;;5.30;4.90;;;21.50;43.60;;;;;;10502462;28;20242;-70
2022/10/07 10:17:45;;;;;;;8.40;5.50;;;21.60;43.80;;;;;;10502498;28;20749;-70
2022/10/07 10:22:48;;;;;;;5.70;5.20;;;21.80;43.50;;;;;;10503814;28;20235;-70
2022/10/07 10:28:01;;;;;;;4.97;4.50;;;21.90;43.00;;;;;;10506795;28;20258;-69
2022/10/07 10:33:14;;;;;;;7.67;5.20;;;22.00;42.00;;;;;;10502626;28;20228;-70
2022/10/07 10:38:36;;;;;;;5.90;5.30;;;22.10;41.80;;;;;;10503726;28;20232;-70
2022/10/07 10:44:03;;;;;;;5.60;5.10;;;22.20;41.70;;;;;;10500069;28;20223;-70
2022/10/07 10:49:24;;;;;;;6.23;5.67;;;22.40;41.60;;;;;;10505604;28;20228;-70
2022/10/07 10:54:38;;;;;;;6.33;5.83;;;22.50;41.30;;;;;;10503062;28;20719;-70
2022/10/07 10:59:57;;;;;;;6.23;5.60;;;22.60;40.60;;;;;;10499133;28;20700;-70
2022/10/07 11:05:05;;;;;;;5.77;5.27;;;22.70;40.60;;;;;;10498208;28;20995;-70
2022/10/07 11:10:19;;;;;;;6.23;5.63;;;22.80;40.30;;;;;;10504001;28;20292;-70
2022/10/07 11:15:25;;;;;;;7.47;6.67;;;22.80;40.20;;;;;;10495713;28;20246;-70
2022/10/07 11:20:33;;;;;;;9.00;7.23;;;22.70;40.00;;;;;;10500786;28;20700;-70
2022/10/07 11:25:41;;;;;;;8.67;7.20;;;22.80;39.60;;;;;;10495851;28;20231;-70
2022/10/07 11:30:51;;;;;;;8.63;7.93;;;22.80;39.70;;;;;;10498447;28;20228;-70
2022/10/07 11:35:59;;;;;;;10.17;9.27;;;22.70;39.00;;;;;;10495402;28;20289;-70
2022/10/07 11:41:07;;;;;;;9.03;8.13;;;22.70;39.80;;;;;;10495678;28;20230;-69
2022/10/07 11:46:17;;;;;;;10.63;8.27;;;22.70;39.80;;;;;;10498363;28;20232;-69
2022/10/07 11:51:26;;;;;;;9.83;8.93;;;22.60;39.40;;;;;;10499571;28;20743;-71
2022/10/07 11:56:36;;;;;;;10.20;9.20;;;22.60;39.50;;;;;;10498797;28;20712;-70
2022/10/07 12:01:50;;;;;;;10.03;9.07;;;22.60;39.70;;;;;;10495818;28;20232;-70
2022/10/07 12:07:30;;;;;;;6.97;6.30;;;22.60;39.50;;;;;;10498954;28;20746;-70
2022/10/07 12:12:49;;;;;;;8.40;7.57;;;22.60;39.30;;;;;;10501732;28;20232;-70
2022/10/07 12:17:56;;;;;;;8.20;7.40;;;22.60;38.80;;;;;;10504424;28;20266;-70
2022/10/07 12:23:38;;;;;;;8.30;7.47;;;22.60;38.80;;;;;;10507034;28;20224;-71
2022/10/07 12:28:47;;;;;;;10.03;7.20;;;22.60;38.80;;;;;;10473108;28;20296;-73
2022/10/07 12:33:56;;;;;;;8.70;7.03;;;22.60;38.80;;;;;;10504709;28;20649;-73
2022/10/07 12:39:33;;;;;;;8.33;5.90;;;22.60;38.80;;;;;;10503420;28;20289;-73
2022/10/07 12:44:40;;;;;;;8.17;7.37;;;22.60;39.00;;;;;;10504348;28;20290;-73
2022/10/07 12:49:48;;;;;;;8.30;7.43;;;22.60;38.80;;;;;;10502657;28;20239;-73
2022/10/07 12:54:55;;;;;;;6.93;6.33;;;22.70;38.90;;;;;;10496161;28;20228;-73
2022/10/07 13:00:06;;;;;;;9.33;8.43;;;22.70;38.90;;;;;;10503508;28;20232;-71
2022/10/07 13:05:43;;;;;;;8.20;7.23;;;22.70;38.90;;;;;;10505020;28;21088;-73
2022/10/07 13:11:00;;;;;;;7.50;6.80;;;22.70;38.90;;;;;;10500509;28;20229;-73
2022/10/07 13:16:11;;;;;;;7.50;6.80;;;22.70;38.90;;;;;;10502150;28;20284;-73
2022/10/07 13:21:21;;;;;;;8.73;6.93;;;22.70;38.90;;;;;;10502639;28;20244;-73
2022/10/07 13:26:26;;;;;;;9.33;7.33;;;22.70;38.90;;;;;;10502308;28;20233;-73
2022/10/07 13:31:33;;;;;;;7.80;6.97;;;22.70;38.90;;;;;;10504710;28;20286;-71
2022/10/07 13:36:43;;;;;;;9.03;7.53;;;22.70;38.90;;;;;;10499485;28;20236;-71
2022/10/07 13:41:47;;;;;;;8.33;7.37;;;22.80;38.90;;;;;;10501391;28;20220;-73
2022/10/07 13:46:56;;;;;;;7.20;6.47;;;22.80;39.00;;;;;;10497165;28;20235;-73
2022/10/07 13:52:02;;;;;;;9.03;7.57;;;22.90;38.70;;;;;;10496854;28;20228;-73
2022/10/07 13:57:06;;;;;;;7.73;7.00;;;22.90;38.60;;;;;;10500337;28;20231;-73
2022/10/07 14:02:17;;;;;;;8.57;7.77;;;22.90;39.10;;;;;;10501828;28;20254;-73
2022/10/07 14:07:22;;;;;;;10.60;8.20;;;22.90;38.10;;;;;;10496889;28;20285;-73
2022/10/07 14:12:30;;;;;;;7.23;6.63;;;22.90;38.40;;;;;;10507508;28;20225;-73
2022/10/07 14:17:41;;;;;;;8.40;7.37;;;23.00;39.00;;;;;;10497375;28;20255;-73
2022/10/07 14:22:48;;;;;;;8.07;7.27;;;23.00;38.00;;;;;;10496819;28;20681;-71
2022/10/07 14:28:14;;;;;;;8.00;6.90;;;23.00;38.00;;;;;;10495594;28;20250;-73
2022/10/07 14:38:46;;;;;;;7.33;6.63;;;23.00;38.00;;;;;;10498253;28;20503;-73
2022/10/07 14:43:51;;;;;;;7.47;6.63;;;23.00;38.20;;;;;;10502474;28;20228;-73
2022/10/07 14:48:56;;;;;;;8.30;6.33;;;22.90;37.80;;;;;;10491146;28;20228;-73
2022/10/07 14:54:02;;;;;;;7.53;5.77;;;22.90;38.00;;;;;;10493488;28;20228;-73
2022/10/07 14:59:10;;;;;;;6.73;6.07;;;22.90;37.70;;;;;;10495344;28;20266;-73
2022/10/07 15:04:15;;;;;;;6.47;5.90;;;22.90;37.40;;;;;;10501498;28;20232;-73
2022/10/07 15:09:18;;;;;;;6.80;6.03;;;22.80;37.80;;;;;;10497632;28;21051;-73
2022/10/07 15:14:21;;;;;;;8.30;5.80;;;22.80;38.00;;;;;;10500892;28;20232;-73
2022/10/07 15:19:26;;;;;;;6.50;5.90;;;22.80;38.30;;;;;;10498806;28;20722;-73
2022/10/07 15:24:30;;;;;;;7.67;6.27;;;22.70;38.90;;;;;;10498137;28;20703;-73
2022/10/07 15:29:33;;;;;;;7.70;6.67;;;22.60;38.20;;;;;;10498038;28;20228;-73
2022/10/07 15:34:38;;;;;;;7.40;6.80;;;22.60;38.40;;;;;;10498410;28;20238;-75
2022/10/07 15:39:41;;;;;;;7.13;6.47;;;22.50;38.60;;;;;;10499146;28;20378;-75
2022/10/07 15:44:44;;;;;;;7.83;7.03;;;22.40;38.60;;;;;;10497502;28;20301;-75
2022/10/07 15:49:49;;;;;;;7.23;6.43;;;22.40;38.60;;;;;;10493238;28;20320;-74
2022/10/07 15:54:53;;;;;;;6.97;6.27;;;22.40;38.60;;;;;;10506089;28;20665;-75
2022/10/07 15:59:56;;;;;;;7.83;7.00;;;22.30;38.50;;;;;;10504832;28;20236;-75
2022/10/07 16:05:00;;;;;;;7.33;6.63;;;22.30;38.60;;;;;;10503653;28;20222;-74
2022/10/07 16:10:04;;;;;;;7.70;6.90;;;22.20;38.40;;;;;;10497460;28;20231;-74
2022/10/07 16:15:14;;;;;;;7.00;6.40;;;22.20;38.40;;;;;;10510884;28;20761;-74
2022/10/07 16:20:19;;;;;;;6.73;6.13;;;22.20;38.40;;;;;;10503434;28;20232;-74
2022/10/07 16:25:22;;;;;;;8.03;6.90;;;22.20;38.40;;;;;;10507801;28;20735;-73
2022/10/07 16:30:41;;;;;;;8.37;7.57;;;22.10;38.40;;;;;;10500988;28;20246;-74
2022/10/07 16:35:45;;;;;;;6.90;6.30;;;22.10;38.40;;;;;;10503135;28;20228;-73
2022/10/07 16:40:52;;;;;;;6.83;6.00;;;21.90;38.20;;;;;;10501688;28;20223;-74
2022/10/07 16:45:55;;;;;;;6.53;5.93;;;21.80;38.10;;;;;;10503318;28;20242;-73
2022/10/07 16:51:00;;;;;;;5.57;5.17;;;21.70;38.00;;;;;;10509179;28;20699;-74
2022/10/07 16:56:04;;;;;;;6.70;6.10;;;21.70;38.20;;;;;;10504580;28;20239;-74
2022/10/07 17:01:09;;;;;;;6.13;5.63;;;21.60;38.00;;;;;;10505306;28;20243;-74
2022/10/07 17:06:16;;;;;;;6.70;5.90;;;21.50;38.10;;;;;;10504527;28;20227;-74
2022/10/07 17:11:30;;;;;;;8.93;8.00;;;21.40;38.20;;;;;;10501698;28;20311;-74
2022/10/07 17:16:36;;;;;;;8.00;7.30;;;21.30;38.30;;;;;;10507069;28;20243;-74
2022/10/07 17:21:42;;;;;;;7.77;7.07;;;21.20;38.30;;;;;;10503934;28;20719;-74
2022/10/07 17:26:46;;;;;;;11.03;9.17;;;21.10;38.60;;;;;;10500378;28;20274;-74
2022/10/07 17:31:50;;;;;;;10.53;9.53;;;21.00;38.40;;;;;;10502148;28;20741;-74
2022/10/07 17:36:57;;;;;;;7.37;6.73;;;20.90;38.60;;;;;;10503088;28;20838;-74
2022/10/07 17:42:00;;;;;;;7.60;6.87;;;20.80;38.70;;;;;;10496814;28;20301;-74
2022/10/07 17:47:04;;;;;;;9.07;8.13;;;20.70;38.70;;;;;;10494800;28;20236;-74
2022/10/07 17:52:09;;;;;;;8.40;7.70;;;20.60;38.60;;;;;;10504479;28;20315;-74
2022/10/07 17:57:12;;;;;;;8.77;8.07;;;20.50;38.60;;;;;;10500847;28;20719;-74
2022/10/07 18:02:19;;;;;;;9.20;8.30;;;20.50;38.60;;;;;;10480146;28;20240;-74
2022/10/07 18:07:31;;;;;;;7.97;7.27;;;20.40;38.60;;;;;;10488997;28;20232;-74
2022/10/07 18:24:11;;;;;;;9.83;8.90;;;20.10;38.80;;;;;;10221580;28;20236;-74
2022/10/07 18:30:03;;;;;;;11.33;9.23;;;20.10;38.80;;;;;;10346256;28;20620;-74
2022/10/07 18:35:58;;;;;;;9.60;8.60;;;20.00;38.70;;;;;;10403769;22;20392;-74
2022/10/07 18:41:04;;;;;;;10.67;8.70;;;19.80;38.60;;;;;;10517317;28;20242;-74
2022/10/07 18:46:10;;;;;;;11.50;9.67;;;19.70;38.80;;;;;;10518169;28;20239;-74
2022/10/07 18:51:14;;;;;;;10.77;9.67;;;19.70;39.00;;;;;;10507272;28;20236;-74
2022/10/07 18:56:21;;;;;;;8.57;7.67;;;19.60;38.80;;;;;;10508937;28;20345;-74
2022/10/07 19:01:28;;;;;;;13.60;12.30;;;19.40;39.00;;;;;;10516902;28;20239;-74
2022/10/07 19:06:37;;;;;;;13.77;12.47;;;19.30;39.00;;;;;;10518517;28;20310;-74
2022/10/07 19:11:42;;;;;;;13.87;12.47;;;19.10;39.40;;;;;;10477903;28;20232;-74
2022/10/07 19:16:58;;;;;;;14.83;13.33;;;18.90;39.40;;;;;;10497164;28;20238;-74
2022/10/07 19:22:05;;;;;;;14.63;13.23;;;18.60;40.00;;;;;;10514341;28;20237;-74
2022/10/07 19:27:10;;;;;;;15.43;13.80;;;18.60;39.70;;;;;;10519777;28;20223;-74
2022/10/07 19:32:13;;;;;;;15.60;13.97;;;18.40;40.20;;;;;;10527872;28;20265;-74
2022/10/07 19:37:17;;;;;;;14.90;13.50;;;18.30;40.20;;;;;;10527456;28;20260;-74
2022/10/07 19:42:21;;;;;;;14.40;13.00;;;18.20;40.20;;;;;;10525182;28;20636;-74
2022/10/07 19:47:26;;;;;;;13.40;11.53;;;18.10;40.80;;;;;;10523381;28;20640;-74
2022/10/07 19:52:29;;;;;;;13.53;12.13;;;18.20;40.50;;;;;;10521547;28;20281;-74
2022/10/07 19:57:33;;;;;;;12.10;10.90;;;18.20;40.30;;;;;;10507547;28;20242;-74
2022/10/07 20:02:36;;;;;;;10.37;9.37;;;18.20;40.20;;;;;;10524803;28;20595;-74
2022/10/07 20:07:40;;;;;;;9.47;8.47;;;18.20;39.90;;;;;;10523399;28;20322;-74
2022/10/07 20:12:44;;;;;;;8.90;8.00;;;18.20;39.90;;;;;;10524847;28;20261;-74
2022/10/07 20:17:48;;;;;;;12.67;11.40;;;18.20;39.90;;;;;;10496602;28;20232;-74
2022/10/07 20:22:51;;;;;;;10.80;9.70;;;18.20;39.80;;;;;;10513626;28;20234;-74
2022/10/07 20:27:56;;;;;;;11.47;10.43;;;18.10;39.70;;;;;;10525083;28;20232;-74
2022/10/07 20:32:59;;;;;;;11.67;10.60;;;18.00;39.60;;;;;;10513653;28;20227;-74
2022/10/07 20:38:02;;;;;;;12.77;11.10;;;18.00;39.70;;;;;;10527021;28;20231;-74
2022/10/07 20:43:07;;;;;;;13.70;12.13;;;17.90;39.80;;;;;;10524755;28;20235;-74
2022/10/07 20:48:13;;;;;;;13.23;12.03;;;17.80;39.70;;;;;;10509568;28;20239;-73
2022/10/07 20:53:16;;;;;;;12.77;11.57;;;17.80;39.60;;;;;;10524135;28;20614;-73
2022/10/07 20:58:20;;;;;;;12.13;10.93;;;17.70;39.60;;;;;;10521511;28;20289;-73
2022/10/07 21:03:23;;;;;;;12.83;11.73;;;17.60;39.80;;;;;;10522640;28;20750;-73
2022/10/07 21:08:27;;;;;;;10.73;9.77;;;17.60;39.90;;;;;;10521590;28;20317;-73
2022/10/07 21:13:32;;;;;;;12.03;10.93;;;17.50;39.70;;;;;;10522706;28;20719;-73
2022/10/07 21:18:36;;;;;;;14.63;13.03;;;17.50;40.00;;;;;;10522289;28;20304;-75
2022/10/07 21:23:40;;;;;;;11.93;10.90;;;17.40;39.70;;;;;;10523287;28;20766;-75
2022/10/07 21:28:46;;;;;;;12.60;11.40;;;17.40;39.80;;;;;;10520974;28;20235;-73
2022/10/07 21:33:52;;;;;;;10.30;9.40;;;17.30;39.80;;;;;;10521851;28;20251;-73
2022/10/07 21:38:58;;;;;;;11.27;10.27;;;17.20;39.60;;;;;;10521582;28;20231;-73
2022/10/07 21:44:05;;;;;;;11.80;10.70;;;17.20;39.80;;;;;;10518904;28;20216;-73
2022/10/07 21:49:08;;;;;;;14.17;12.70;;;17.10;40.00;;;;;;10517717;28;20582;-73
2022/10/07 21:54:16;;;;;;;14.97;13.47;;;17.00;39.60;;;;;;10516758;28;20254;-73
2022/10/07 21:59:20;;;;;;;11.03;10.03;;;17.00;39.60;;;;;;10520813;28;20232;-73
2022/10/07 22:04:24;;;;;;;15.07;13.47;;;16.90;39.70;;;;;;10497726;28;20220;-73
2022/10/07 22:09:27;;;;;;;14.93;13.37;;;16.80;39.60;;;;;;10517295;28;20250;-73
2022/10/07 22:14:32;;;;;;;13.70;12.50;;;16.70;39.70;;;;;;10518157;28;20288;-73
2022/10/07 22:19:35;;;;;;;11.60;10.50;;;16.60;39.90;;;;;;10519949;28;20239;-73
2022/10/07 22:24:38;;;;;;;13.00;11.70;;;16.50;39.80;;;;;;10514610;28;20297;-73
2022/10/07 22:29:43;;;;;;;13.47;12.27;;;16.50;40.00;;;;;;10516242;28;20232;-73
2022/10/07 22:40:07;;;;;;;14.63;13.23;;;16.30;39.80;;;;;;10521477;28;20230;-73
2022/10/07 22:45:12;;;;;;;11.57;10.47;;;16.30;40.10;;;;;;10516591;28;20277;-73
2022/10/07 22:50:15;;;;;;;11.93;10.83;;;16.20;40.30;;;;;;10520508;28;20232;-73
2022/10/07 22:55:20;;;;;;;11.40;10.40;;;16.10;40.20;;;;;;10517980;28;20235;-73
2022/10/07 23:00:24;;;;;;;13.77;11.57;;;16.00;40.20;;;;;;10522194;28;20227;-73
2022/10/07 23:05:27;;;;;;;12.97;11.83;;;16.00;40.40;;;;;;10515275;28;20236;-73
2022/10/07 23:10:31;;;;;;;13.53;12.23;;;15.90;40.40;;;;;;10520155;28;20235;-73
2022/10/07 23:15:35;;;;;;;11.63;10.63;;;15.90;40.40;;;;;;10517929;28;20223;-73
2022/10/07 23:20:38;;;;;;;10.63;9.67;;;15.90;40.40;;;;;;10518907;28;20277;-73
2022/10/07 23:25:42;;;;;;;10.30;9.30;;;15.90;40.20;;;;;;10520610;28;20227;-74
2022/10/07 23:30:46;;;;;;;10.30;9.23;;;15.90;40.40;;;;;;10516718;28;20277;-73
2022/10/07 23:35:55;;;;;;;11.03;9.97;;;15.80;40.50;;;;;;10519848;28;20261;-73
2022/10/07 23:40:59;;;;;;;10.97;10.07;;;15.80;40.80;;;;;;10520050;28;20223;-73
2022/10/07 23:46:05;;;;;;;11.20;10.30;;;15.80;40.50;;;;;;10498498;28;20247;-73
2022/10/07 23:51:10;;;;;;;12.77;11.57;;;15.70;40.90;;;;;;10508622;28;20228;-73
2022/10/07 23:56:14;;;;;;;11.93;10.73;;;15.70;40.80;;;;;;10515679;28;20285;-73
